Time;durP1;ratioP1;P1;durP2;ratioP2;P2;SDS_P1;SDS_P2;PMS_P1;PMS_P2;Temp;Humidity;BMP_temperature;BMP_pressure;BME280_temperature;BME280_humidity;BME280_pressure;Samples;Min_cycle;Max_cycle;Signal;HPM_P1;HPM_P2
2021/09/10 00:01:17;;;;;;;8.10;7.30;;;21.30;99.90;;;;;;4978513;28;20178;-86
2021/09/10 00:03:42;;;;;;;9.07;7.47;;;21.40;99.90;;;;;;4978476;28;20183;-86
2021/09/10 00:06:08;;;;;;;8.50;6.73;;;21.30;99.90;;;;;;4980590;28;20175;-85
2021/09/10 00:08:34;;;;;;;8.53;6.83;;;21.30;99.90;;;;;;4979687;28;20175;-85
2021/09/10 00:11:00;;;;;;;7.40;6.67;;;21.30;99.90;;;;;;4996416;28;20678;-84
2021/09/10 00:13:26;;;;;;;8.17;6.87;;;21.30;99.90;;;;;;4995985;28;20174;-85
2021/09/10 00:15:52;;;;;;;8.73;7.10;;;21.20;99.90;;;;;;4978260;28;20654;-86
2021/09/10 00:18:17;;;;;;;8.67;6.37;;;21.10;99.90;;;;;;4994774;28;20250;-86
2021/09/10 00:20:43;;;;;;;7.80;6.93;;;21.10;99.90;;;;;;4977840;28;20171;-86
2021/09/10 00:23:09;;;;;;;7.50;6.80;;;21.10;99.90;;;;;;4977406;28;20214;-85
2021/09/10 00:25:34;;;;;;;10.90;7.00;;;21.10;99.90;;;;;;4995394;28;20249;-86
2021/09/10 00:28:00;;;;;;;8.20;6.90;;;21.10;99.90;;;;;;4994604;28;20262;-86
2021/09/10 00:30:25;;;;;;;9.30;6.90;;;21.10;99.90;;;;;;4994364;28;20178;-85
2021/09/10 00:32:51;;;;;;;8.40;6.80;;;21.00;99.90;;;;;;4977142;28;20187;-88
2021/09/10 00:35:17;;;;;;;9.30;6.63;;;21.10;99.90;;;;;;4994718;28;20174;-84
2021/09/10 00:37:42;;;;;;;7.43;6.47;;;21.00;99.90;;;;;;4993814;28;20171;-85
2021/09/10 00:40:08;;;;;;;6.73;6.03;;;21.00;99.90;;;;;;4978402;28;20185;-85
2021/09/10 00:42:34;;;;;;;8.13;6.17;;;21.00;99.90;;;;;;4994056;28;20213;-84
2021/09/10 00:45:00;;;;;;;8.37;6.40;;;21.00;99.90;;;;;;4977456;28;20171;-84
2021/09/10 00:47:26;;;;;;;8.67;6.77;;;21.00;99.90;;;;;;4995545;28;20683;-86
2021/09/10 00:49:52;;;;;;;8.13;6.33;;;21.00;99.90;;;;;;4977487;28;20185;-86
2021/09/10 00:52:18;;;;;;;7.33;6.30;;;21.00;99.90;;;;;;4994271;28;20179;-87
2021/09/10 00:54:44;;;;;;;7.50;5.80;;;21.00;99.90;;;;;;4976699;28;20212;-86
2021/09/10 00:57:10;;;;;;;7.60;6.10;;;21.00;99.90;;;;;;4976849;28;20599;-85
2021/09/10 00:59:35;;;;;;;8.77;6.10;;;21.00;99.90;;;;;;4976756;28;20661;-85
2021/09/10 01:02:02;;;;;;;8.97;6.30;;;21.00;99.90;;;;;;4994135;28;20209;-84
2021/09/10 01:04:28;;;;;;;7.77;6.17;;;20.90;99.90;;;;;;4993891;28;20519;-86
2021/09/10 01:06:55;;;;;;;9.40;5.63;;;21.00;99.90;;;;;;4976195;28;20203;-84
2021/09/10 01:09:22;;;;;;;7.93;5.90;;;20.90;99.90;;;;;;4994188;28;20264;-85
2021/09/10 01:11:50;;;;;;;8.10;7.30;;;20.90;99.90;;;;;;4977015;28;20167;-86
2021/09/10 01:14:18;;;;;;;7.50;6.30;;;20.80;99.90;;;;;;4976032;28;20204;-85
2021/09/10 01:16:45;;;;;;;6.67;6.03;;;20.80;99.90;;;;;;4976628;28;20253;-84
2021/09/10 01:19:28;;;;;;;9.60;6.47;;;20.90;99.90;;;;;;4976329;28;20732;-85
2021/09/10 01:21:56;;;;;;;7.43;6.17;;;20.80;99.90;;;;;;4976580;28;20660;-85
2021/09/10 01:24:27;;;;;;;7.20;6.50;;;20.80;99.90;;;;;;4976683;28;20646;-86
2021/09/10 01:26:53;;;;;;;8.37;6.50;;;20.70;99.90;;;;;;4976737;28;20220;-85
2021/09/10 01:29:19;;;;;;;7.87;6.33;;;20.70;99.90;;;;;;4994986;28;20183;-85
2021/09/10 01:31:45;;;;;;;7.97;5.90;;;20.80;99.90;;;;;;4996042;28;20199;-85
2021/09/10 01:34:10;;;;;;;6.90;6.20;;;20.70;99.90;;;;;;4980386;28;20198;-84
2021/09/10 01:36:36;;;;;;;8.57;6.50;;;20.80;99.90;;;;;;5000570;28;20217;-84
2021/09/10 01:39:02;;;;;;;8.03;5.50;;;20.70;99.90;;;;;;4981289;28;20261;-85
2021/09/10 01:41:28;;;;;;;7.10;5.97;;;20.70;99.90;;;;;;4975981;28;20664;-85
2021/09/10 01:43:53;;;;;;;11.10;6.43;;;20.70;99.90;;;;;;4993717;28;20230;-85
2021/09/10 01:46:21;;;;;;;6.90;5.57;;;20.70;99.90;;;;;;4976406;28;20276;-85
2021/09/10 01:48:48;;;;;;;7.03;6.17;;;20.70;99.90;;;;;;4976557;28;20176;-86
2021/09/10 01:51:14;;;;;;;8.43;5.90;;;20.70;99.90;;;;;;4978186;28;20614;-85
2021/09/10 01:53:40;;;;;;;10.10;5.83;;;20.60;99.90;;;;;;4977571;28;20174;-84
2021/09/10 01:56:05;;;;;;;7.03;6.30;;;20.60;99.90;;;;;;4997486;28;20220;-84
2021/09/10 01:58:31;;;;;;;6.83;5.90;;;20.60;99.90;;;;;;4980030;28;20669;-85
2021/09/10 02:00:57;;;;;;;10.77;6.10;;;20.60;99.90;;;;;;4980346;28;20189;-84
2021/09/10 02:03:22;;;;;;;7.73;5.77;;;20.50;99.90;;;;;;4997386;28;20229;-84
2021/09/10 02:05:49;;;;;;;9.63;6.20;;;20.50;99.90;;;;;;4998011;28;20178;-84
2021/09/10 02:08:15;;;;;;;8.93;5.73;;;20.60;99.90;;;;;;4979276;28;20198;-85
2021/09/10 02:10:41;;;;;;;6.63;5.50;;;20.50;99.90;;;;;;4996137;28;20253;-85
2021/09/10 02:13:06;;;;;;;7.63;6.13;;;20.60;99.90;;;;;;4996025;28;20570;-85
2021/09/10 02:15:32;;;;;;;9.20;5.80;;;20.50;99.90;;;;;;4979759;28;20170;-84
2021/09/10 02:17:57;;;;;;;6.50;5.87;;;20.50;99.90;;;;;;4995853;28;20164;-86
2021/09/10 02:20:24;;;;;;;6.83;5.70;;;20.50;99.90;;;;;;5018168;28;20551;-83
2021/09/10 02:22:50;;;;;;;7.73;5.67;;;20.50;99.90;;;;;;5005571;28;20221;-84
2021/09/10 02:25:15;;;;;;;8.13;6.40;;;20.40;99.90;;;;;;5007189;28;20181;-85
2021/09/10 02:27:42;;;;;;;8.03;5.80;;;20.40;99.90;;;;;;4999760;28;20231;-85
2021/09/10 02:30:09;;;;;;;9.07;5.97;;;20.50;99.90;;;;;;4997168;28;20599;-85
2021/09/10 02:32:34;;;;;;;7.83;6.10;;;20.40;99.90;;;;;;4979928;28;20244;-84
2021/09/10 02:35:00;;;;;;;8.33;6.47;;;20.30;99.90;;;;;;4995779;28;20696;-84
2021/09/10 02:37:27;;;;;;;9.47;6.20;;;20.40;99.90;;;;;;5003950;28;20195;-86
2021/09/10 02:39:59;;;;;;;8.17;6.70;;;20.40;99.90;;;;;;5021722;28;20180;-82
2021/09/10 02:42:32;;;;;;;9.13;7.30;;;20.30;99.90;;;;;;5013582;28;20200;-84
2021/09/10 02:45:02;;;;;;;9.37;6.83;;;20.40;99.90;;;;;;4989817;28;20180;-87
2021/09/10 02:47:32;;;;;;;7.43;6.57;;;20.40;99.90;;;;;;4981158;28;20180;-85
2021/09/10 02:49:59;;;;;;;11.00;7.07;;;20.50;99.90;;;;;;4979223;28;20180;-85
2021/09/10 02:52:24;;;;;;;9.93;6.80;;;20.50;99.90;;;;;;4979233;28;20208;-85
2021/09/10 02:54:50;;;;;;;8.83;6.97;;;20.70;99.90;;;;;;4979673;28;20202;-84
2021/09/10 02:57:16;;;;;;;8.97;6.70;;;20.60;99.90;;;;;;4996608;28;20178;-84
2021/09/10 02:59:41;;;;;;;8.70;7.00;;;20.60;99.90;;;;;;4997446;28;20173;-84
2021/09/10 03:02:07;;;;;;;10.90;7.20;;;20.60;99.90;;;;;;4988511;28;20202;-83
2021/09/10 03:04:32;;;;;;;8.53;6.73;;;20.50;99.90;;;;;;4997916;28;20320;-83
2021/09/10 03:06:58;;;;;;;12.77;7.30;;;20.50;99.90;;;;;;5014597;28;20194;-82
2021/09/10 03:09:24;;;;;;;10.30;7.43;;;20.50;99.90;;;;;;5015509;28;20209;-83
2021/09/10 03:11:49;;;;;;;9.93;7.53;;;20.50;99.90;;;;;;4979396;28;20261;-84
2021/09/10 03:14:15;;;;;;;10.60;7.80;;;20.50;99.90;;;;;;4979211;28;20188;-85
2021/09/10 03:16:40;;;;;;;9.50;7.50;;;20.50;99.90;;;;;;4979043;28;20175;-84
2021/09/10 03:19:09;;;;;;;10.47;7.30;;;20.60;99.90;;;;;;4996021;28;20184;-82
2021/09/10 03:21:35;;;;;;;11.37;7.97;;;20.50;99.90;;;;;;4978383;28;20373;-85
2021/09/10 03:24:03;;;;;;;10.27;8.20;;;20.60;99.90;;;;;;4994831;28;20277;-84
2021/09/10 03:26:50;;;;;;;9.33;8.33;;;20.60;99.90;;;;;;4978954;28;20194;-86
2021/09/10 03:29:16;;;;;;;11.20;8.13;;;20.60;99.90;;;;;;4984398;28;20269;-86
2021/09/10 03:31:42;;;;;;;11.27;8.00;;;20.50;99.90;;;;;;4978230;28;20209;-86
2021/09/10 03:34:07;;;;;;;9.03;7.60;;;20.60;99.90;;;;;;4978254;28;20179;-87
2021/09/10 03:36:33;;;;;;;10.70;8.20;;;20.50;99.90;;;;;;4978500;28;20650;-84
2021/09/10 03:38:59;;;;;;;11.80;7.77;;;20.50;99.90;;;;;;4996465;28;20174;-84
2021/09/10 03:41:24;;;;;;;11.07;8.13;;;20.40;99.90;;;;;;4978222;28;20185;-85
2021/09/10 03:43:52;;;;;;;10.03;8.43;;;20.50;99.90;;;;;;4995454;28;20548;-82
2021/09/10 03:46:20;;;;;;;10.10;8.23;;;20.50;99.90;;;;;;4978434;28;20262;-86
2021/09/10 03:48:46;;;;;;;11.17;9.03;;;20.40;99.90;;;;;;4978670;28;20190;-85
2021/09/10 03:51:12;;;;;;;13.23;9.30;;;20.40;99.90;;;;;;4987483;28;20514;-83
2021/09/10 03:53:38;;;;;;;13.27;9.23;;;20.40;99.90;;;;;;4983042;28;20184;-85
2021/09/10 03:56:04;;;;;;;11.73;9.50;;;20.50;99.90;;;;;;4988589;28;20181;-85
2021/09/10 03:58:30;;;;;;;13.43;8.87;;;20.60;99.90;;;;;;4981092;28;20181;-84
2021/09/10 04:00:56;;;;;;;11.93;8.73;;;20.60;99.90;;;;;;4996704;28;20695;-84
2021/09/10 04:03:22;;;;;;;11.43;9.23;;;20.40;99.90;;;;;;4978276;28;20587;-85
2021/09/10 04:05:48;;;;;;;14.00;10.10;;;20.30;99.90;;;;;;4977256;28;20268;-87
2021/09/10 04:08:15;;;;;;;13.17;9.73;;;20.30;99.90;;;;;;4995150;28;20670;-87
2021/09/10 04:10:40;;;;;;;14.80;10.50;;;20.30;99.90;;;;;;4977606;28;20521;-86
2021/09/10 04:13:06;;;;;;;15.43;9.57;;;20.30;99.90;;;;;;4977604;28;20243;-86
2021/09/10 04:15:32;;;;;;;15.80;10.30;;;20.40;99.90;;;;;;4994974;28;20533;-85
2021/09/10 04:17:58;;;;;;;16.10;10.83;;;20.40;99.90;;;;;;4977198;28;20549;-84
2021/09/10 04:20:24;;;;;;;12.80;10.67;;;20.40;99.90;;;;;;4977427;28;20256;-86
2021/09/10 04:22:49;;;;;;;13.60;10.40;;;20.40;99.90;;;;;;4977322;28;20317;-88
2021/09/10 04:25:15;;;;;;;12.77;9.70;;;20.40;99.90;;;;;;4976965;28;20178;-85
2021/09/10 04:27:41;;;;;;;14.17;9.43;;;20.30;99.90;;;;;;4995252;28;20182;-84
2021/09/10 04:30:08;;;;;;;11.33;8.80;;;20.50;99.90;;;;;;4977624;28;20233;-88
2021/09/10 04:32:34;;;;;;;12.53;8.90;;;20.30;99.90;;;;;;4977283;28;20190;-87
2021/09/10 04:35:00;;;;;;;11.23;8.00;;;20.40;99.90;;;;;;4977475;28;20185;-85
2021/09/10 04:37:26;;;;;;;10.27;7.53;;;20.30;99.90;;;;;;4977885;28;20186;-85
2021/09/10 04:39:52;;;;;;;9.40;6.97;;;20.30;99.90;;;;;;4994355;28;20208;-85
2021/09/10 04:42:17;;;;;;;10.77;6.47;;;20.20;99.90;;;;;;4995712;28;20206;-82
2021/09/10 04:44:43;;;;;;;8.93;6.73;;;20.20;99.90;;;;;;4977627;28;20268;-85
2021/09/10 04:47:09;;;;;;;8.17;6.00;;;20.30;99.90;;;;;;4995246;28;20174;-85
2021/09/10 04:49:34;;;;;;;11.20;6.10;;;20.30;99.90;;;;;;4977114;28;20188;-84
2021/09/10 04:52:00;;;;;;;8.37;5.50;;;20.20;99.90;;;;;;4993655;28;20181;-85
2021/09/10 04:54:27;;;;;;;8.03;5.70;;;20.20;99.90;;;;;;4994698;28;20180;-88
2021/09/10 04:56:52;;;;;;;9.83;5.63;;;20.30;99.90;;;;;;4977564;28;20637;-88
2021/09/10 04:59:18;;;;;;;8.80;5.63;;;20.10;99.90;;;;;;4994686;28;20186;-85
2021/09/10 05:01:44;;;;;;;9.27;5.50;;;20.20;99.90;;;;;;4976913;28;20206;-84
2021/09/10 05:04:10;;;;;;;9.60;6.00;;;20.30;99.90;;;;;;4977910;28;20188;-86
2021/09/10 05:06:36;;;;;;;7.90;5.73;;;20.20;99.90;;;;;;4978348;28;20202;-88
2021/09/10 05:09:03;;;;;;;8.23;5.80;;;20.30;99.90;;;;;;4997819;28;20619;-86
2021/09/10 05:11:28;;;;;;;9.80;6.10;;;20.20;99.90;;;;;;4986730;28;20633;-90
2021/09/10 05:13:54;;;;;;;10.47;6.27;;;20.10;99.90;;;;;;5017247;28;20170;-86
2021/09/10 05:16:20;;;;;;;8.33;5.87;;;20.10;99.90;;;;;;4995704;28;20185;-87
2021/09/10 05:18:46;;;;;;;8.60;6.13;;;20.10;99.90;;;;;;5009876;28;20186;-86
2021/09/10 05:21:50;;;;;;;9.03;6.00;;;20.10;99.90;;;;;;4997263;28;20527;-86
2021/09/10 05:24:18;;;;;;;9.43;6.00;;;20.10;99.90;;;;;;4977141;28;20200;-88
2021/09/10 05:26:43;;;;;;;12.23;5.83;;;20.40;99.90;;;;;;4976636;28;20300;-85
2021/09/10 05:29:09;;;;;;;9.57;6.13;;;20.30;99.90;;;;;;4980874;28;20260;-86
2021/09/10 05:31:35;;;;;;;8.40;6.03;;;20.30;99.90;;;;;;5003616;28;20290;-88
2021/09/10 05:34:00;;;;;;;11.67;6.43;;;20.40;99.90;;;;;;5020522;28;20179;-88
2021/09/10 05:36:26;;;;;;;8.87;6.60;;;20.30;99.90;;;;;;5021648;28;20168;-89
2021/09/10 05:38:51;;;;;;;10.77;6.50;;;20.20;99.90;;;;;;5004757;28;20168;-89
2021/09/10 05:41:17;;;;;;;11.60;8.27;;;20.10;99.90;;;;;;4988801;28;20184;-88
2021/09/10 05:43:45;;;;;;;13.17;7.97;;;20.20;99.90;;;;;;4983378;28;20218;-89
2021/09/10 05:46:14;;;;;;;11.00;6.77;;;20.20;99.90;;;;;;4981633;28;20171;-87
2021/09/10 05:48:39;;;;;;;12.47;7.30;;;20.20;99.90;;;;;;4981189;28;20191;-89
2021/09/10 05:51:08;;;;;;;9.83;6.60;;;20.20;99.90;;;;;;4991232;28;20177;-89
2021/09/10 05:53:34;;;;;;;10.40;6.60;;;20.20;99.90;;;;;;4991319;28;20178;-89
2021/09/10 05:56:00;;;;;;;11.43;7.83;;;20.20;99.90;;;;;;5000513;28;20533;-90
2021/09/10 05:58:26;;;;;;;10.83;7.83;;;20.30;99.90;;;;;;5010952;28;20283;-90
2021/09/10 06:00:52;;;;;;;10.23;7.97;;;20.50;99.90;;;;;;5005207;28;20621;-89
2021/09/10 06:03:18;;;;;;;11.30;8.33;;;20.40;99.90;;;;;;5002819;28;20216;-90
2021/09/10 06:05:56;;;;;;;10.80;7.93;;;20.50;99.90;;;;;;5005266;28;20245;-88
2021/09/10 06:08:21;;;;;;;13.27;8.10;;;20.60;99.90;;;;;;5001388;28;20639;-90
2021/09/10 06:10:47;;;;;;;12.83;10.20;;;20.50;99.90;;;;;;5001494;28;20218;-87
2021/09/10 06:13:13;;;;;;;11.90;8.53;;;20.50;99.90;;;;;;5001869;28;20258;-90
2021/09/10 06:15:40;;;;;;;14.03;8.70;;;20.50;99.90;;;;;;5003443;28;20189;-91
2021/09/10 06:18:05;;;;;;;12.13;8.23;;;20.50;99.90;;;;;;5002064;28;20495;-88
2021/09/10 06:20:31;;;;;;;9.37;7.93;;;20.50;99.90;;;;;;5001436;28;20173;-89
2021/09/10 06:22:57;;;;;;;12.67;7.90;;;20.60;99.90;;;;;;5002086;28;20295;-90
2021/09/10 06:25:27;;;;;;;15.30;8.87;;;20.50;99.90;;;;;;5019200;28;20181;-91
2021/09/10 06:27:53;;;;;;;11.87;8.67;;;20.60;99.90;;;;;;5001445;28;20182;-92
2021/09/10 06:30:20;;;;;;;14.67;9.63;;;20.60;99.90;;;;;;5000287;28;20273;-91
2021/09/10 06:32:45;;;;;;;13.17;8.67;;;20.70;99.90;;;;;;5004169;28;20182;-90
2021/09/10 06:35:11;;;;;;;11.27;8.20;;;20.90;99.90;;;;;;5000906;28;20173;-92
2021/09/10 06:37:37;;;;;;;11.60;8.27;;;20.80;99.90;;;;;;5000550;28;20522;-92
2021/09/10 06:40:05;;;;;;;10.40;8.20;;;20.70;99.90;;;;;;5018987;28;20166;-92
2021/09/10 06:42:30;;;;;;;16.33;8.90;;;20.60;99.90;;;;;;5000663;28;20222;-90
2021/09/10 06:44:56;;;;;;;11.90;8.67;;;20.60;99.90;;;;;;5001095;28;20179;-92
2021/09/10 06:47:23;;;;;;;14.30;8.80;;;20.70;99.90;;;;;;5002014;28;20185;-91
2021/09/10 06:49:50;;;;;;;13.80;8.33;;;20.70;99.90;;;;;;5001301;28;20175;-89
2021/09/10 06:52:17;;;;;;;13.97;9.03;;;20.60;99.90;;;;;;5002849;28;20537;-88
2021/09/10 06:54:43;;;;;;;10.77;8.43;;;20.60;99.90;;;;;;5004075;28;20171;-92
2021/09/10 06:57:09;;;;;;;12.90;8.43;;;20.70;99.90;;;;;;5003531;28;20181;-89
2021/09/10 06:59:35;;;;;;;13.70;8.87;;;20.60;99.90;;;;;;5006730;28;20180;-92
2021/09/10 07:02:00;;;;;;;11.60;8.30;;;20.60;99.90;;;;;;5005467;28;20201;-90
2021/09/10 07:04:27;;;;;;;13.73;9.83;;;20.60;99.90;;;;;;5011671;28;20189;-92
2021/09/10 07:06:53;;;;;;;13.50;8.77;;;20.60;99.90;;;;;;5021914;28;20201;-90
2021/09/10 07:09:18;;;;;;;12.67;8.60;;;20.70;99.90;;;;;;5004692;28;20170;-89
2021/09/10 07:11:44;;;;;;;11.27;8.90;;;20.70;99.90;;;;;;5002775;28;20182;-91
2021/09/10 07:14:10;;;;;;;15.87;8.83;;;20.70;99.90;;;;;;5003305;28;20167;-93
2021/09/10 07:16:36;;;;;;;13.20;8.60;;;21.00;99.90;;;;;;5008618;28;20178;-93
2021/09/10 07:19:02;;;;;;;11.17;8.90;;;21.00;99.90;;;;;;5014547;28;20210;-89
2021/09/10 07:21:29;;;;;;;11.37;9.17;;;21.10;99.90;;;;;;5014548;28;20245;-88
2021/09/10 07:23:55;;;;;;;13.23;10.03;;;21.10;99.90;;;;;;5005593;28;20193;-91
2021/09/10 07:26:23;;;;;;;15.20;9.27;;;21.00;99.90;;;;;;5002421;28;20170;-89
2021/09/10 07:28:48;;;;;;;12.13;8.97;;;21.20;99.90;;;;;;5004311;28;20187;-92
2021/09/10 07:31:16;;;;;;;12.43;9.10;;;21.30;99.90;;;;;;5005213;28;20213;-92
2021/09/10 07:33:43;;;;;;;13.77;9.53;;;21.30;99.90;;;;;;5005739;28;20191;-92
2021/09/10 07:36:11;;;;;;;15.50;9.97;;;21.30;99.90;;;;;;5007521;28;20169;-90
2021/09/10 07:38:38;;;;;;;13.50;10.07;;;21.30;99.90;;;;;;5027388;28;20167;-90
2021/09/10 07:41:04;;;;;;;18.47;11.07;;;21.30;99.90;;;;;;5011808;28;20200;-90
2021/09/10 07:43:40;;;;;;;15.90;10.27;;;21.30;99.90;;;;;;5026060;28;20247;-84
2021/09/10 07:46:10;;;;;;;15.10;10.63;;;21.30;99.90;;;;;;5017430;28;20638;-86
2021/09/10 07:48:35;;;;;;;14.57;10.00;;;21.40;99.90;;;;;;5000828;28;20202;-87
2021/09/10 07:51:01;;;;;;;16.63;10.50;;;21.60;99.90;;;;;;4999997;28;20182;-87
2021/09/10 07:53:27;;;;;;;14.67;10.13;;;21.40;99.90;;;;;;5000948;28;20627;-87
2021/09/10 07:55:53;;;;;;;15.13;10.40;;;21.60;99.90;;;;;;5001895;28;20174;-86
2021/09/10 07:58:20;;;;;;;16.50;9.63;;;21.50;99.90;;;;;;5000445;28;20172;-86
2021/09/10 08:00:46;;;;;;;13.80;9.40;;;21.50;99.90;;;;;;5009926;28;20181;-87
2021/09/10 08:03:12;;;;;;;13.93;9.40;;;21.60;99.90;;;;;;5019789;28;20218;-88
2021/09/10 08:05:38;;;;;;;13.33;9.77;;;21.70;99.90;;;;;;5017957;28;20169;-88
2021/09/10 08:08:05;;;;;;;15.33;9.63;;;21.60;99.90;;;;;;5019698;28;20216;-85
2021/09/10 08:10:31;;;;;;;17.17;9.47;;;21.60;99.90;;;;;;5012944;28;20240;-86
2021/09/10 08:13:00;;;;;;;13.03;10.20;;;21.60;99.90;;;;;;5004926;28;20603;-88
2021/09/10 08:15:39;;;;;;;15.50;10.13;;;21.70;99.90;;;;;;5001927;28;20185;-86
2021/09/10 08:18:05;;;;;;;16.23;10.80;;;21.70;99.90;;;;;;5012565;28;20185;-85
2021/09/10 08:20:31;;;;;;;14.90;10.90;;;21.70;99.90;;;;;;5004365;28;20623;-87
2021/09/10 08:22:56;;;;;;;14.60;10.00;;;21.80;99.90;;;;;;5002268;28;20218;-85
2021/09/10 08:25:22;;;;;;;17.30;11.37;;;21.80;99.90;;;;;;5014244;28;20173;-85
2021/09/10 08:27:49;;;;;;;15.47;10.97;;;21.90;99.90;;;;;;5019100;28;20185;-86
2021/09/10 08:30:14;;;;;;;17.63;11.10;;;21.70;99.90;;;;;;5008012;28;20177;-85
2021/09/10 08:32:40;;;;;;;19.33;11.67;;;21.60;99.90;;;;;;5004398;28;20642;-87
2021/09/10 08:35:23;;;;;;;15.17;11.47;;;21.70;99.90;;;;;;5016369;28;20178;-84
2021/09/10 08:37:50;;;;;;;16.73;11.23;;;21.60;99.90;;;;;;4999348;28;20178;-85
2021/09/10 08:40:18;;;;;;;19.07;11.33;;;21.80;99.90;;;;;;4998829;28;20199;-85
2021/09/10 08:42:45;;;;;;;17.00;12.20;;;21.90;99.90;;;;;;5001445;28;20214;-86
2021/09/10 08:45:18;;;;;;;16.33;11.63;;;21.80;99.90;;;;;;4998513;28;20186;-86
2021/09/10 08:47:45;;;;;;;16.73;11.80;;;21.80;99.90;;;;;;4999564;28;20189;-84
2021/09/10 08:50:12;;;;;;;16.70;11.93;;;21.90;99.90;;;;;;5001013;28;20273;-85
2021/09/10 08:52:38;;;;;;;17.57;12.00;;;21.80;99.90;;;;;;5005724;28;20189;-85
2021/09/10 08:55:09;;;;;;;17.83;11.87;;;21.80;99.90;;;;;;5002085;28;20170;-85
2021/09/10 08:57:36;;;;;;;18.30;12.10;;;21.70;99.90;;;;;;5002445;28;20184;-86
2021/09/10 09:00:06;;;;;;;20.50;13.30;;;21.80;99.90;;;;;;5000994;28;20178;-87
2021/09/10 09:02:32;;;;;;;19.77;13.43;;;21.90;99.90;;;;;;4999502;28;20202;-87
2021/09/10 09:04:58;;;;;;;19.37;13.23;;;22.00;99.90;;;;;;4998586;28;20185;-87
2021/09/10 09:07:27;;;;;;;19.33;13.93;;;21.90;99.90;;;;;;4998875;28;20206;-86
2021/09/10 09:09:57;;;;;;;19.73;14.30;;;22.00;99.90;;;;;;4998861;28;20270;-85
2021/09/10 09:12:31;;;;;;;17.87;13.70;;;21.90;99.90;;;;;;5014623;28;20175;-86
2021/09/10 09:15:05;;;;;;;18.80;14.30;;;21.70;99.90;;;;;;5020766;28;20169;-86
2021/09/10 09:17:36;;;;;;;16.27;13.07;;;21.70;99.90;;;;;;5020910;28;20230;-86
2021/09/10 09:20:24;;;;;;;18.53;14.50;;;21.60;99.90;;;;;;5007497;28;20202;-85
2021/09/10 09:23:11;;;;;;;17.80;13.87;;;21.50;99.90;;;;;;5002250;28;20213;-87
2021/09/10 09:25:42;;;;;;;18.70;13.87;;;21.50;99.90;;;;;;5018105;28;20169;-85
2021/09/10 09:28:31;;;;;;;19.73;14.03;;;21.60;99.90;;;;;;4998659;28;20220;-86
2021/09/10 09:31:02;;;;;;;18.80;15.13;;;21.50;99.90;;;;;;4998493;28;20281;-87
2021/09/10 09:33:39;;;;;;;17.87;14.33;;;21.50;99.90;;;;;;4998084;28;20174;-87
2021/09/10 09:36:10;;;;;;;20.20;14.90;;;21.50;99.90;;;;;;4998189;28;20202;-86
2021/09/10 09:38:39;;;;;;;22.90;15.33;;;21.60;99.90;;;;;;5016554;28;20170;-85
2021/09/10 09:41:09;;;;;;;20.47;15.60;;;21.60;99.90;;;;;;4999419;28;20189;-87
2021/09/10 09:43:41;;;;;;;23.87;15.60;;;21.50;99.90;;;;;;5015427;28;20222;-84
2021/09/10 09:46:19;;;;;;;19.30;15.20;;;21.50;99.90;;;;;;4998379;28;20182;-85
2021/09/10 09:48:48;;;;;;;22.23;16.07;;;21.50;99.90;;;;;;5014605;28;20202;-86
2021/09/10 09:51:18;;;;;;;18.33;15.87;;;21.60;99.90;;;;;;4998084;28;20174;-87
2021/09/10 09:53:45;;;;;;;23.17;16.87;;;21.60;99.90;;;;;;4997712;28;20185;-87
2021/09/10 09:56:11;;;;;;;18.10;15.83;;;21.50;99.90;;;;;;5001287;28;20178;-86
2021/09/10 09:58:39;;;;;;;23.70;16.40;;;21.50;99.90;;;;;;5010849;28;20181;-88
2021/09/10 10:01:06;;;;;;;22.77;16.77;;;21.40;99.90;;;;;;5009784;28;20171;-89
2021/09/10 10:03:32;;;;;;;22.50;14.67;;;21.40;99.90;;;;;;4997720;28;20353;-86
2021/09/10 10:06:04;;;;;;;23.37;16.00;;;21.40;99.90;;;;;;4996815;28;20224;-85
2021/09/10 10:08:40;;;;;;;21.83;16.00;;;21.30;99.90;;;;;;4998188;28;20198;-85
2021/09/10 10:11:23;;;;;;;19.33;15.53;;;21.40;99.90;;;;;;5005762;28;20657;-85
2021/09/10 10:14:02;;;;;;;21.20;16.10;;;21.30;99.90;;;;;;5006256;28;20240;-86
2021/09/10 10:16:43;;;;;;;21.67;16.20;;;21.30;99.90;;;;;;5004806;28;20177;-87
2021/09/10 10:19:38;;;;;;;22.37;16.73;;;21.10;99.90;;;;;;5001685;28;20171;-87
2021/09/10 10:22:11;;;;;;;22.73;15.43;;;21.10;99.90;;;;;;4996582;28;20214;-87
2021/09/10 10:24:59;;;;;;;22.97;16.40;;;21.10;99.90;;;;;;5001430;28;20191;-89
2021/09/10 10:27:39;;;;;;;21.70;15.83;;;21.10;99.90;;;;;;5001241;28;20193;-89
2021/09/10 10:30:05;;;;;;;21.40;15.90;;;21.00;99.90;;;;;;5000793;28;20183;-88
2021/09/10 10:32:32;;;;;;;20.97;15.27;;;21.00;99.90;;;;;;5001217;28;20184;-88
2021/09/10 10:35:30;;;;;;;23.37;15.83;;;20.90;99.90;;;;;;5019264;28;20177;-87
2021/09/10 10:38:01;;;;;;;19.20;14.53;;;20.90;99.90;;;;;;5018969;28;20182;-85
2021/09/10 10:40:47;;;;;;;19.33;15.00;;;20.90;99.90;;;;;;5002856;28;20179;-87
2021/09/10 10:43:20;;;;;;;19.60;15.30;;;21.00;99.90;;;;;;5004516;28;20500;-86
2021/09/10 10:45:45;;;;;;;21.23;15.67;;;21.10;99.90;;;;;;5007622;28;20260;-85
2021/09/10 10:48:29;;;;;;;17.97;15.17;;;21.20;99.90;;;;;;5006771;28;20265;-87
2021/09/10 10:51:00;;;;;;;21.63;15.67;;;21.10;99.90;;;;;;5008409;28;20269;-86
2021/09/10 10:53:26;;;;;;;21.87;16.27;;;21.10;99.90;;;;;;5014424;28;20184;-87
2021/09/10 10:55:54;;;;;;;21.57;17.00;;;21.20;99.90;;;;;;5039784;28;20196;-86
2021/09/10 10:58:23;;;;;;;24.63;17.03;;;21.10;99.90;;;;;;5021832;28;20185;-89
2021/09/10 11:00:52;;;;;;;24.83;19.40;;;21.00;99.90;;;;;;5015862;28;20184;-89
2021/09/10 11:03:21;;;;;;;25.37;19.60;;;21.10;99.90;;;;;;5006075;28;20221;-90
2021/09/10 11:05:51;;;;;;;27.37;19.67;;;21.10;99.90;;;;;;5002748;28;20229;-89
2021/09/10 11:08:38;;;;;;;23.23;18.17;;;21.20;99.90;;;;;;5003745;28;20265;-90
2021/09/10 11:11:04;;;;;;;24.63;18.77;;;21.10;99.90;;;;;;5003631;28;20217;-91
2021/09/10 11:13:30;;;;;;;24.30;19.47;;;21.30;99.90;;;;;;5012050;28;20226;-87
2021/09/10 11:15:56;;;;;;;23.97;18.97;;;21.40;99.90;;;;;;5022421;28;20165;-87
2021/09/10 11:18:26;;;;;;;22.20;17.87;;;21.50;99.90;;;;;;5037042;28;20230;-90
2021/09/10 11:20:53;;;;;;;20.70;16.90;;;21.60;99.90;;;;;;5017054;28;20248;-89
2021/09/10 11:23:36;;;;;;;16.00;13.97;;;21.80;99.90;;;;;;5019187;28;20226;-89
2021/09/10 11:26:03;;;;;;;15.33;13.73;;;21.80;99.90;;;;;;5000995;28;20588;-91
2021/09/10 11:28:31;;;;;;;20.43;14.03;;;21.80;99.90;;;;;;5001852;28;20193;-89
2021/09/10 11:30:57;;;;;;;14.60;12.80;;;21.90;99.90;;;;;;5001812;28;20277;-92
2021/09/10 11:33:24;;;;;;;17.03;14.03;;;22.00;99.90;;;;;;5001320;28;20319;-91
2021/09/10 11:35:52;;;;;;;17.80;14.20;;;21.90;99.90;;;;;;5007938;28;20183;-90
2021/09/10 11:38:21;;;;;;;15.63;12.90;;;22.00;99.90;;;;;;5004159;28;20185;-90
2021/09/10 11:40:49;;;;;;;12.83;10.77;;;22.10;99.90;;;;;;5001258;28;20179;-88
2021/09/10 11:43:20;;;;;;;13.17;10.87;;;22.20;99.90;;;;;;5002709;28;20294;-89
2021/09/10 11:45:54;;;;;;;12.57;10.43;;;22.30;99.90;;;;;;5003111;28;20364;-89
2021/09/10 11:48:24;;;;;;;10.23;9.20;;;22.30;99.90;;;;;;5019356;28;20184;-90
2021/09/10 11:51:01;;;;;;;13.43;10.77;;;22.20;99.90;;;;;;5027137;28;20178;-86
2021/09/10 11:53:30;;;;;;;13.23;11.83;;;22.30;99.90;;;;;;5007701;28;20244;-91
2021/09/10 11:56:19;;;;;;;11.90;9.60;;;22.60;99.90;;;;;;5002877;28;20180;-89
2021/09/10 11:58:49;;;;;;;10.47;9.43;;;22.70;99.90;;;;;;5005412;28;20172;-91
2021/09/10 12:01:30;;;;;;;11.07;9.30;;;22.80;99.90;;;;;;5003204;28;20164;-91
2021/09/10 12:04:10;;;;;;;8.33;7.53;;;22.90;99.90;;;;;;5021981;28;20206;-90
2021/09/10 12:06:53;;;;;;;9.37;7.23;;;23.00;99.90;;;;;;5004361;28;20222;-90
2021/09/10 12:09:31;;;;;;;9.07;6.93;;;23.00;99.60;;;;;;5005432;28;20199;-88
2021/09/10 12:12:15;;;;;;;7.20;6.50;;;23.00;99.40;;;;;;5010685;28;20181;-89
2021/09/10 12:14:53;;;;;;;11.13;7.00;;;23.20;97.90;;;;;;5011234;28;20177;-89
2021/09/10 12:17:28;;;;;;;8.50;5.97;;;23.50;96.30;;;;;;5004036;28;20175;-87
2021/09/10 12:19:56;;;;;;;8.33;6.93;;;23.50;95.40;;;;;;5005094;28;20183;-87
2021/09/10 12:22:38;;;;;;;10.23;7.00;;;23.40;95.90;;;;;;5004931;28;20237;-90
2021/09/10 12:25:28;;;;;;;8.53;7.40;;;23.40;95.70;;;;;;5002457;28;20185;-89
2021/09/10 12:28:14;;;;;;;7.63;6.90;;;23.50;95.90;;;;;;5004028;28;20201;-90
2021/09/10 12:30:47;;;;;;;10.57;6.97;;;23.50;95.70;;;;;;5003072;28;20193;-89
2021/09/10 12:33:18;;;;;;;8.17;6.50;;;23.70;94.80;;;;;;5018937;28;20166;-88
2021/09/10 12:35:46;;;;;;;8.17;6.37;;;23.60;94.60;;;;;;5002799;28;20175;-89
2021/09/10 12:38:15;;;;;;;8.30;7.43;;;23.60;94.10;;;;;;5002069;28;20176;-88
2021/09/10 12:40:45;;;;;;;8.53;7.27;;;23.50;93.30;;;;;;5010901;28;20180;-87
2021/09/10 12:43:12;;;;;;;9.17;7.47;;;23.50;93.20;;;;;;5009412;28;20193;-87
2021/09/10 12:45:39;;;;;;;8.17;7.20;;;23.50;93.70;;;;;;5008300;28;20188;-86